CZST Airport Information

Runway Information
Runway 18 Length 3900 ft width 75 ft
Elevation 0 ft Threshold 0 ft Heading 194
Runway 36 Length 3900 ft Width 75 ft
Elevation 0 ft Threshold 0 ft Heading 14
Airport Frequencies
Type ATF Name ATF Frequency 123.2 MHZ
Airport Navaids
Airport Weather Information & NOTAM
ADDS - METARS form results

(1633 UTC 18 October 2018)
Data provider http://aviationweather.gov/metar/data/
 
METAR text: CZST 181600Z VRB02KT 5SM BR SCT008 BKN015 OVC025 07/07 A3025 RMK SC3SC3SC2 SLP246
Conditions at: CZST (STEWART AIRPORT , BC, CA) observed 1600 UTC 18 October 2018
Temperature: 7.0°C (45°F)
Dewpoint: 7.0°C (45°F) [RH = 100%]
Pressure (altimeter): 30.25 inches Hg (1024.5 mb)
[Sea-level pressure: 1024.6 mb]
Winds: variable direction winds at 2 MPH (2 knots; 1.0 m/s)
Visibility: 5 miles ( 8 km)
Ceiling: 1500 feet AGL
Clouds: scattered clouds at 800 feet AGL
broken clouds at 1500 feet AGL
overcast cloud deck at 2500 feet AGL
Weather: BR  (mist)

METAR text: CZST 181550Z 00000KT 6SM BR FEW005 BKN010 OVC025 07/07 A3025 RMK SC2SC3SC3 SLP246
Conditions at: CZST (STEWART AIRPORT , BC, CA) observed 1550 UTC 18 October 2018
Temperature: 7.0°C (45°F)
Dewpoint: 7.0°C (45°F) [RH = 100%]
Pressure (altimeter): 30.25 inches Hg (1024.5 mb)
[Sea-level pressure: 1024.6 mb]
Winds: calm
Visibility: 6 miles (10 km)
Ceiling: 1000 feet AGL
Clouds: few clouds at 500 feet AGL
broken clouds at 1000 feet AGL
overcast cloud deck at 2500 feet AGL
Weather: BR  (mist)